Time;durP1;ratioP1;P1;durP2;ratioP2;P2;SDS_P1;SDS_P2;PMS_P1;PMS_P2;Temp;Humidity;BMP_temperature;BMP_pressure;BME280_temperature;BME280_humidity;BME280_pressure;Samples;Min_cycle;Max_cycle;Signal;HPM_P1;HPM_P2
2021/11/14 00:02:09;;;;;;;3.85;1.40;;;21.20;42.80;;;;;;5022529;28;20085;-67
2021/11/14 00:04:35;;;;;;;4.18;1.52;;;21.30;42.90;;;;;;5027617;28;20053;-67
2021/11/14 00:07:01;;;;;;;4.82;1.80;;;21.30;42.90;;;;;;5027589;28;20049;-67
2021/11/14 00:09:28;;;;;;;4.45;1.50;;;21.20;42.60;;;;;;5021913;28;20050;-67
2021/11/14 00:11:55;;;;;;;4.50;1.70;;;21.20;42.60;;;;;;5023133;28;20064;-67
2021/11/14 00:14:21;;;;;;;4.00;1.42;;;21.20;42.60;;;;;;5020985;28;20064;-67
2021/11/14 00:16:47;;;;;;;6.65;1.38;;;21.20;42.60;;;;;;5019628;28;20518;-67
2021/11/14 00:19:13;;;;;;;3.95;1.50;;;21.20;42.50;;;;;;5025457;28;20498;-67
2021/11/14 00:21:41;;;;;;;3.58;1.20;;;21.20;42.60;;;;;;5020636;28;20049;-67
2021/11/14 00:24:12;;;;;;;4.88;1.58;;;21.20;42.70;;;;;;5021699;28;20042;-68
2021/11/14 00:26:39;;;;;;;5.05;1.80;;;21.20;42.60;;;;;;5018869;28;20056;-67
2021/11/14 00:29:05;;;;;;;4.70;1.70;;;21.20;42.60;;;;;;5015086;28;20510;-68
2021/11/14 00:31:31;;;;;;;4.35;1.50;;;21.20;42.50;;;;;;5020083;28;20042;-67
2021/11/14 00:33:57;;;;;;;5.88;1.40;;;21.20;42.50;;;;;;5024634;28;20069;-67
2021/11/14 00:36:27;;;;;;;3.95;1.30;;;21.20;42.50;;;;;;5020474;28;20079;-67
2021/11/14 00:38:53;;;;;;;4.03;1.50;;;21.20;42.50;;;;;;5021521;28;20456;-67
2021/11/14 00:41:20;;;;;;;4.80;1.52;;;21.20;42.60;;;;;;5020833;28;20085;-67
2021/11/14 00:43:46;;;;;;;4.25;1.40;;;21.20;42.50;;;;;;5020451;28;20095;-67
2021/11/14 00:46:14;;;;;;;3.53;1.20;;;21.20;42.50;;;;;;5020603;28;20044;-67
2021/11/14 00:48:43;;;;;;;3.83;1.30;;;21.20;42.50;;;;;;5021752;28;20041;-67
2021/11/14 00:51:15;;;;;;;3.88;1.48;;;21.20;42.70;;;;;;5020685;28;20484;-67
2021/11/14 00:53:41;;;;;;;4.28;1.50;;;21.10;42.40;;;;;;5019756;28;20526;-67
2021/11/14 00:56:07;;;;;;;4.38;1.60;;;21.20;42.50;;;;;;5019833;28;20103;-67
2021/11/14 00:58:33;;;;;;;3.60;1.27;;;21.10;42.40;;;;;;5018259;28;20594;-67
2021/11/14 01:00:59;;;;;;;4.38;1.50;;;21.10;42.50;;;;;;5016334;28;20049;-67
2021/11/14 01:03:25;;;;;;;4.07;1.50;;;21.20;43.30;;;;;;5017754;28;20053;-67
2021/11/14 01:05:51;;;;;;;4.00;1.33;;;21.10;42.40;;;;;;5018253;28;20504;-67
2021/11/14 01:08:19;;;;;;;4.00;1.30;;;21.20;42.60;;;;;;5016560;28;20133;-67
2021/11/14 01:10:48;;;;;;;3.90;1.30;;;21.10;42.40;;;;;;5015934;28;20691;-67
2021/11/14 01:13:14;;;;;;;3.80;1.42;;;21.10;42.40;;;;;;5015124;28;20049;-67
2021/11/14 01:15:41;;;;;;;4.65;1.50;;;21.20;42.50;;;;;;5015613;28;20080;-67
2021/11/14 01:18:08;;;;;;;4.15;1.40;;;21.20;42.60;;;;;;5020370;28;20661;-67
2021/11/14 01:20:37;;;;;;;3.88;1.27;;;21.10;42.30;;;;;;5018015;28;20064;-66
2021/11/14 01:23:05;;;;;;;3.78;1.30;;;21.20;42.50;;;;;;5011625;28;20045;-67
2021/11/14 01:25:31;;;;;;;2.88;1.08;;;21.10;42.40;;;;;;5019258;28;20060;-66
2021/11/14 01:27:57;;;;;;;3.58;1.20;;;21.10;42.40;;;;;;5021960;28;20040;-67
2021/11/14 01:30:26;;;;;;;3.83;1.30;;;21.20;42.60;;;;;;5020936;28;20038;-66
2021/11/14 01:32:53;;;;;;;4.10;1.35;;;21.10;42.30;;;;;;5019730;28;20140;-66
2021/11/14 01:35:19;;;;;;;4.25;1.40;;;21.20;42.60;;;;;;5020210;28;20451;-66
2021/11/14 01:37:47;;;;;;;4.03;1.40;;;21.20;42.60;;;;;;5022047;28;20041;-67
2021/11/14 01:40:17;;;;;;;3.85;1.30;;;21.20;42.50;;;;;;5013984;28;20049;-66
2021/11/14 01:42:42;;;;;;;3.83;1.27;;;21.20;42.50;;;;;;5020714;28;20404;-67
2021/11/14 01:45:10;;;;;;;4.45;1.35;;;21.20;42.60;;;;;;5023002;28;20040;-66
2021/11/14 01:47:35;;;;;;;3.95;1.33;;;21.20;42.60;;;;;;5024457;28;20045;-67
2021/11/14 01:50:12;;;;;;;3.90;1.27;;;21.20;42.60;;;;;;5020919;28;20091;-67
2021/11/14 01:52:39;;;;;;;4.05;1.25;;;21.20;42.50;;;;;;5020791;28;20458;-67
2021/11/14 01:55:08;;;;;;;3.92;1.10;;;21.20;42.60;;;;;;5016742;28;20526;-66
2021/11/14 01:57:34;;;;;;;3.63;1.33;;;21.20;42.50;;;;;;5020005;28;20499;-67
2021/11/14 02:00:00;;;;;;;4.25;1.50;;;21.20;42.50;;;;;;5020362;28;20073;-67
2021/11/14 02:02:26;;;;;;;3.85;1.25;;;21.20;42.60;;;;;;5022607;28;20060;-67
2021/11/14 02:04:52;;;;;;;4.45;1.30;;;21.20;42.50;;;;;;5024007;28;20045;-67
2021/11/14 02:07:18;;;;;;;3.80;1.27;;;21.20;42.50;;;;;;5019300;28;20548;-67
2021/11/14 02:09:44;;;;;;;3.40;1.23;;;21.20;42.50;;;;;;5023668;28;20045;-67
2021/11/14 02:12:10;;;;;;;4.13;1.13;;;21.20;42.50;;;;;;5021754;28;20049;-67
2021/11/14 02:14:36;;;;;;;4.20;1.42;;;21.20;42.60;;;;;;5022320;28;20048;-67
2021/11/14 02:17:03;;;;;;;3.35;1.20;;;21.20;42.50;;;;;;5028075;28;20038;-67
2021/11/14 02:19:29;;;;;;;3.90;1.35;;;21.20;42.60;;;;;;5024628;28;20049;-67
2021/11/14 02:21:55;;;;;;;3.85;1.30;;;21.20;42.50;;;;;;5027564;28;20039;-67
2021/11/14 02:24:22;;;;;;;3.28;1.20;;;21.20;42.50;;;;;;5018459;28;20135;-67
2021/11/14 02:26:48;;;;;;;3.88;1.40;;;21.20;42.50;;;;;;5020733;28;20578;-67
2021/11/14 02:29:14;;;;;;;3.55;1.20;;;21.20;42.50;;;;;;5020977;28;20136;-67
2021/11/14 02:31:42;;;;;;;3.58;1.20;;;21.20;42.40;;;;;;5023824;28;20076;-67
2021/11/14 02:34:09;;;;;;;3.58;1.20;;;21.20;42.50;;;;;;5024440;28;20052;-67
2021/11/14 02:36:35;;;;;;;3.58;1.02;;;21.20;42.50;;;;;;5022856;28;20562;-67
2021/11/14 02:39:01;;;;;;;3.63;1.20;;;21.20;42.50;;;;;;5026788;28;20049;-67
2021/11/14 02:41:27;;;;;;;3.60;1.10;;;21.20;42.50;;;;;;5027747;28;20044;-67
2021/11/14 02:43:54;;;;;;;3.72;1.20;;;21.20;42.50;;;;;;5026632;28;20136;-67
2021/11/14 02:46:20;;;;;;;2.97;0.93;;;21.20;42.50;;;;;;5023289;28;20029;-67
2021/11/14 02:48:47;;;;;;;2.88;1.08;;;21.20;42.50;;;;;;5028022;28;20487;-67
2021/11/14 02:51:22;;;;;;;2.45;0.88;;;21.20;42.50;;;;;;5026917;28;20037;-67
2021/11/14 02:53:49;;;;;;;2.63;0.90;;;21.20;43.10;;;;;;5021779;28;20047;-67
2021/11/14 02:56:15;;;;;;;2.83;1.05;;;21.20;43.10;;;;;;5024136;28;20041;-67
2021/11/14 02:58:42;;;;;;;3.67;1.20;;;21.20;42.50;;;;;;5022671;28;20038;-67
2021/11/14 03:01:16;;;;;;;3.42;1.10;;;21.20;42.40;;;;;;5020393;28;20034;-67
2021/11/14 03:03:43;;;;;;;3.95;1.10;;;21.20;42.40;;;;;;5025120;28;20077;-67
2021/11/14 03:06:09;;;;;;;3.10;1.05;;;21.20;42.50;;;;;;5022184;28;20072;-67
2021/11/14 03:08:36;;;;;;;4.55;1.13;;;21.20;42.40;;;;;;5021432;28;20138;-67
2021/11/14 03:11:02;;;;;;;2.60;0.82;;;21.20;42.50;;;;;;5026236;28;20033;-67
2021/11/14 03:13:28;;;;;;;2.92;0.88;;;21.20;42.40;;;;;;5023574;28;20041;-67
2021/11/14 03:15:57;;;;;;;2.40;0.90;;;21.20;42.50;;;;;;5020253;28;20071;-67
2021/11/14 03:18:23;;;;;;;2.75;0.88;;;21.20;42.40;;;;;;5024690;28;20148;-67
2021/11/14 03:20:50;;;;;;;3.15;1.00;;;21.20;42.40;;;;;;5023862;28;20124;-67
2021/11/14 03:23:18;;;;;;;3.10;1.10;;;21.20;42.40;;;;;;5018877;28;20044;-67
2021/11/14 03:25:45;;;;;;;2.53;0.90;;;21.20;42.50;;;;;;5027269;28;20041;-67
2021/11/14 03:28:11;;;;;;;2.22;0.80;;;21.20;42.50;;;;;;5022197;28;20722;-67
2021/11/14 03:30:37;;;;;;;2.75;0.85;;;21.20;42.50;;;;;;5023295;28;20087;-67
2021/11/14 03:33:09;;;;;;;3.90;1.20;;;21.20;42.50;;;;;;5020758;28;20034;-67
2021/11/14 03:35:54;;;;;;;3.55;1.13;;;21.20;42.50;;;;;;5019083;28;20044;-67
2021/11/14 03:38:28;;;;;;;3.33;1.00;;;21.20;42.40;;;;;;5029464;28;20032;-67
2021/11/14 03:40:56;;;;;;;2.95;0.95;;;21.20;42.50;;;;;;5025653;28;20112;-67
2021/11/14 03:43:21;;;;;;;3.90;1.27;;;21.20;42.40;;;;;;5024306;28;20069;-67
2021/11/14 03:45:49;;;;;;;3.80;1.10;;;21.20;42.50;;;;;;5025678;28;20041;-67
2021/11/14 03:48:15;;;;;;;4.25;1.30;;;21.20;42.30;;;;;;5022517;28;20068;-67
2021/11/14 03:50:42;;;;;;;2.88;1.00;;;21.20;42.20;;;;;;5025905;28;20121;-67
2021/11/14 03:53:11;;;;;;;4.10;1.20;;;21.20;42.20;;;;;;5027462;28;20116;-67
2021/11/14 03:55:38;;;;;;;3.75;1.25;;;21.20;42.30;;;;;;5023332;28;20056;-67
2021/11/14 03:58:04;;;;;;;3.75;1.17;;;21.20;42.40;;;;;;5020363;28;20076;-67
2021/11/14 04:00:35;;;;;;;4.63;1.25;;;21.20;42.30;;;;;;5022150;28;20045;-67
2021/11/14 04:03:01;;;;;;;3.80;1.27;;;21.20;42.30;;;;;;5018699;28;20040;-67
2021/11/14 04:05:31;;;;;;;4.05;1.17;;;21.20;42.30;;;;;;5020590;28;20030;-67
2021/11/14 04:07:59;;;;;;;3.55;1.15;;;21.20;42.30;;;;;;5023620;28;20041;-67
2021/11/14 04:10:26;;;;;;;3.70;1.20;;;21.20;42.30;;;;;;5020008;28;20052;-67
2021/11/14 04:12:52;;;;;;;3.47;1.20;;;21.20;42.30;;;;;;5022914;28;20095;-68
2021/11/14 04:15:18;;;;;;;3.17;1.10;;;21.10;42.30;;;;;;5021990;28;20037;-67
2021/11/14 04:17:44;;;;;;;2.85;0.90;;;21.10;42.20;;;;;;5018615;28;20069;-68
2021/11/14 04:20:13;;;;;;;4.35;1.20;;;21.20;42.40;;;;;;5018558;28;20045;-67
2021/11/14 04:22:39;;;;;;;2.70;1.02;;;21.10;42.20;;;;;;5017552;28;20158;-67
2021/11/14 04:25:07;;;;;;;3.80;1.10;;;21.10;42.10;;;;;;5017454;28;20034;-68
2021/11/14 04:27:33;;;;;;;3.33;1.00;;;21.20;42.50;;;;;;5017449;28;20131;-67
2021/11/14 04:29:59;;;;;;;3.00;0.90;;;21.10;42.30;;;;;;5019385;28;20590;-67
2021/11/14 04:32:25;;;;;;;2.78;0.90;;;21.10;42.20;;;;;;5014014;28;20057;-67
2021/11/14 04:34:51;;;;;;;2.85;1.00;;;21.10;42.30;;;;;;5016446;28;20045;-67
2021/11/14 04:37:17;;;;;;;3.03;0.90;;;21.10;42.20;;;;;;5017888;28;20069;-67
2021/11/14 04:39:42;;;;;;;2.47;0.90;;;21.20;42.40;;;;;;5018684;28;20084;-68
2021/11/14 04:42:08;;;;;;;2.78;0.90;;;21.20;42.40;;;;;;5018996;28;20057;-66
2021/11/14 04:44:36;;;;;;;2.63;0.80;;;21.10;42.20;;;;;;5019890;28;20041;-67
2021/11/14 04:47:02;;;;;;;2.53;0.80;;;21.20;42.40;;;;;;5014495;28;20042;-66
2021/11/14 04:49:28;;;;;;;1.70;0.70;;;21.10;42.20;;;;;;5013992;28;20048;-67
2021/11/14 04:51:54;;;;;;;2.97;0.98;;;21.10;42.10;;;;;;5019135;28;20791;-67
2021/11/14 04:54:21;;;;;;;1.92;0.73;;;21.10;42.10;;;;;;5018529;28;20040;-66
2021/11/14 04:56:49;;;;;;;2.33;0.73;;;21.10;42.00;;;;;;5017778;28;20049;-66
2021/11/14 04:59:15;;;;;;;2.78;0.80;;;21.10;42.00;;;;;;5019997;28;20454;-66
2021/11/14 05:01:41;;;;;;;2.88;0.90;;;21.10;42.00;;;;;;5021544;28;20050;-67
2021/11/14 05:04:07;;;;;;;2.03;0.65;;;21.20;42.10;;;;;;5022877;28;20034;-67
2021/11/14 05:06:33;;;;;;;2.83;0.80;;;21.10;42.10;;;;;;5020282;28;20470;-67
2021/11/14 05:09:00;;;;;;;2.38;0.68;;;21.10;42.10;;;;;;5019255;28;20037;-67
2021/11/14 05:11:25;;;;;;;2.05;0.60;;;21.10;42.00;;;;;;5022411;28;20045;-66
2021/11/14 05:13:52;;;;;;;1.55;0.60;;;21.10;42.00;;;;;;5022999;28;20722;-67
2021/11/14 05:16:18;;;;;;;2.08;0.63;;;21.10;42.10;;;;;;5019969;28;20041;-67
2021/11/14 05:18:43;;;;;;;2.33;0.80;;;21.10;42.10;;;;;;5021440;28;20063;-67
2021/11/14 05:21:09;;;;;;;2.05;0.65;;;21.10;42.10;;;;;;5023206;28;20651;-67
2021/11/14 05:23:36;;;;;;;2.22;0.70;;;21.20;42.30;;;;;;5018017;28;21001;-67
2021/11/14 05:26:03;;;;;;;1.90;0.65;;;21.20;42.20;;;;;;5019965;28;20063;-67
2021/11/14 05:28:28;;;;;;;1.80;0.63;;;21.10;42.10;;;;;;5022386;28;20045;-67
2021/11/14 05:30:54;;;;;;;2.50;0.70;;;21.10;42.00;;;;;;5022659;28;20033;-67
2021/11/14 05:33:20;;;;;;;1.67;0.60;;;21.20;42.10;;;;;;5019159;28;20566;-67
2021/11/14 05:35:46;;;;;;;1.33;0.50;;;21.10;41.90;;;;;;5021887;28;20648;-67
2021/11/14 05:38:12;;;;;;;3.50;0.60;;;21.10;42.00;;;;;;5019861;28;20092;-67
2021/11/14 05:40:38;;;;;;;1.38;0.60;;;21.10;41.90;;;;;;5019024;28;20426;-67
2021/11/14 05:43:04;;;;;;;1.40;0.50;;;21.10;41.90;;;;;;5023101;28;20071;-68
2021/11/14 05:45:30;;;;;;;0.98;0.47;;;21.20;42.10;;;;;;5019991;28;20149;-67
2021/11/14 05:47:56;;;;;;;1.42;0.50;;;21.10;41.90;;;;;;5023148;28;20059;-68
2021/11/14 05:50:23;;;;;;;1.33;0.55;;;21.10;42.00;;;;;;5021594;28;20049;-67
2021/11/14 05:52:49;;;;;;;1.98;0.60;;;21.10;42.00;;;;;;5032825;28;20068;-67
2021/11/14 05:55:15;;;;;;;1.02;0.50;;;21.10;42.00;;;;;;5022452;28;20065;-67
2021/11/14 06:03:35;;;;;;;3.40;0.52;;;21.10;41.80;;;;;;5024913;28;20422;-67
2021/11/14 06:05:55;;;;;;;0.98;0.40;;;21.20;42.00;;;;;;5019181;28;20442;-67
2021/11/14 06:08:21;;;;;;;2.17;0.70;;;21.10;41.80;;;;;;5024527;28;20061;-67
2021/11/14 06:10:49;;;;;;;0.90;0.40;;;21.20;42.00;;;;;;5019263;28;20029;-66
2021/11/14 06:13:18;;;;;;;1.35;0.50;;;21.20;42.00;;;;;;5023424;28;20033;-66
2021/11/14 06:15:44;;;;;;;1.95;0.50;;;21.10;42.00;;;;;;5023523;28;20034;-66
2021/11/14 06:18:10;;;;;;;1.40;0.45;;;21.10;41.80;;;;;;5020492;28;20104;-66
2021/11/14 06:20:35;;;;;;;1.00;0.43;;;21.10;41.80;;;;;;5020420;28;20481;-66
2021/11/14 06:23:01;;;;;;;4.32;0.60;;;21.10;41.80;;;;;;5021370;28;20094;-66
2021/11/14 06:25:27;;;;;;;0.70;0.32;;;21.10;41.80;;;;;;5022177;28;20041;-66
2021/11/14 06:27:52;;;;;;;1.90;0.50;;;21.10;41.90;;;;;;5017997;28;20048;-66
2021/11/14 06:30:18;;;;;;;2.63;0.52;;;21.10;42.00;;;;;;5023018;28;20041;-66
2021/11/14 06:32:44;;;;;;;0.90;0.40;;;21.10;42.20;;;;;;5021779;28;20042;-66
2021/11/14 06:35:10;;;;;;;2.20;0.50;;;21.10;42.10;;;;;;5019293;28;20065;-66
2021/11/14 06:37:37;;;;;;;1.80;0.40;;;21.10;42.00;;;;;;5019243;28;20033;-66
2021/11/14 06:40:04;;;;;;;1.77;0.50;;;21.10;42.00;;;;;;5018262;28;20308;-65
2021/11/14 06:42:30;;;;;;;2.10;0.50;;;21.10;42.00;;;;;;5020413;28;20045;-66
2021/11/14 06:44:55;;;;;;;3.35;0.68;;;21.20;42.10;;;;;;5020274;28;20040;-65
2021/11/14 06:47:21;;;;;;;2.42;0.50;;;21.10;41.90;;;;;;5022883;28;20057;-66
2021/11/14 06:49:51;;;;;;;1.15;0.50;;;21.10;41.80;;;;;;5022516;28;20112;-66
2021/11/14 06:52:17;;;;;;;1.15;0.40;;;21.10;41.80;;;;;;5019460;28;20045;-66
2021/11/14 06:54:43;;;;;;;1.25;0.50;;;21.10;41.70;;;;;;5020547;28;20052;-66
2021/11/14 06:57:08;;;;;;;0.95;0.38;;;21.10;41.70;;;;;;5019394;28;20057;-67
2021/11/14 06:59:37;;;;;;;1.25;0.47;;;21.10;41.70;;;;;;5021094;28;20069;-67
2021/11/14 07:02:03;;;;;;;1.15;0.32;;;21.10;41.70;;;;;;5020186;28;20033;-67
2021/11/14 07:04:28;;;;;;;2.65;0.50;;;21.10;41.70;;;;;;5024732;28;20045;-67
2021/11/14 07:06:54;;;;;;;1.60;0.50;;;21.10;41.70;;;;;;5021681;28;20082;-67
2021/11/14 07:09:19;;;;;;;5.32;0.50;;;21.10;41.80;;;;;;5023529;28;20035;-67
2021/11/14 07:11:45;;;;;;;1.23;0.50;;;21.10;41.60;;;;;;5022566;28;20047;-66
2021/11/14 07:14:11;;;;;;;1.85;0.40;;;21.10;41.70;;;;;;5026442;28;20520;-67
2021/11/14 07:16:36;;;;;;;1.30;0.47;;;21.20;42.00;;;;;;5031092;28;20076;-67
2021/11/14 07:19:02;;;;;;;1.98;0.52;;;21.10;41.70;;;;;;5029945;28;20038;-67
2021/11/14 07:21:28;;;;;;;1.15;0.40;;;21.10;41.70;;;;;;5035667;28;20045;-66
2021/11/14 07:23:54;;;;;;;0.50;0.30;;;21.20;41.70;;;;;;5016981;28;20163;-65
2021/11/14 07:26:20;;;;;;;0.80;0.32;;;21.10;41.60;;;;;;5022027;28;20174;-66
2021/11/14 07:28:45;;;;;;;1.15;0.40;;;21.10;41.60;;;;;;5026360;28;20094;-66
2021/11/14 07:31:11;;;;;;;1.95;0.40;;;21.20;41.70;;;;;;5025003;28;20678;-65
2021/11/14 07:33:37;;;;;;;1.15;0.47;;;21.10;41.60;;;;;;5023640;28;20041;-65
2021/11/14 07:36:03;;;;;;;1.27;0.50;;;21.10;41.50;;;;;;5020858;28;20068;-66
2021/11/14 07:38:28;;;;;;;1.00;0.40;;;21.10;41.50;;;;;;5018939;28;20057;-66
2021/11/14 07:40:54;;;;;;;1.23;0.43;;;21.10;41.40;;;;;;5019015;28;20033;-66
2021/11/14 07:43:20;;;;;;;1.13;0.40;;;21.10;41.40;;;;;;5022523;28;20499;-66
2021/11/14 07:45:46;;;;;;;1.60;0.50;;;21.10;41.40;;;;;;5017237;28;20050;-66
2021/11/14 07:48:12;;;;;;;0.73;0.35;;;21.10;41.50;;;;;;5021846;28;20037;-66
2021/11/14 07:50:39;;;;;;;1.10;0.40;;;21.10;41.50;;;;;;5022876;28;20937;-66
2021/11/14 07:53:06;;;;;;;1.38;0.50;;;21.10;41.40;;;;;;5019544;28;20044;-65
2021/11/14 07:55:32;;;;;;;1.20;0.50;;;21.10;41.40;;;;;;5019605;28;20080;-65
2021/11/14 07:57:59;;;;;;;1.02;0.45;;;21.20;41.60;;;;;;5019936;28;20041;-65
2021/11/14 08:00:25;;;;;;;2.10;0.60;;;21.10;41.60;;;;;;5020778;28;20124;-66
2021/11/14 08:02:51;;;;;;;1.63;0.60;;;21.10;41.50;;;;;;5019802;28;20030;-65
2021/11/14 08:05:19;;;;;;;1.40;0.50;;;21.10;41.40;;;;;;5016587;28;20034;-66
2021/11/14 08:07:46;;;;;;;2.35;0.65;;;21.10;41.60;;;;;;5020161;28;20509;-65
2021/11/14 08:10:12;;;;;;;2.63;0.68;;;21.10;41.60;;;;;;5019759;28;20037;-66
2021/11/14 08:12:39;;;;;;;2.40;0.60;;;21.10;41.50;;;;;;5021723;28;20042;-66
2021/11/14 08:15:06;;;;;;;3.75;1.13;;;21.10;41.50;;;;;;5022318;28;20057;-63
2021/11/14 08:17:31;;;;;;;33.97;2.40;;;21.10;40.80;;;;;;5018925;28;20571;-64
2021/11/14 08:19:58;;;;;;;22.48;2.00;;;21.00;41.20;;;;;;5025678;28;20037;-65
2021/11/14 08:22:24;;;;;;;14.25;1.85;;;20.90;41.50;;;;;;5018361;28;20180;-65
2021/11/14 08:24:50;;;;;;;14.48;1.45;;;21.00;41.80;;;;;;5020691;28;20135;-66
2021/11/14 08:27:15;;;;;;;14.65;1.60;;;21.00;41.90;;;;;;5022948;28;20558;-65
2021/11/14 08:29:41;;;;;;;16.58;1.85;;;21.00;42.00;;;;;;5021000;28;20124;-66
2021/11/14 08:32:07;;;;;;;13.02;1.40;;;21.00;42.00;;;;;;5021848;28;20402;-66
2021/11/14 08:34:34;;;;;;;11.10;1.25;;;21.00;42.10;;;;;;5017648;28;20041;-67
2021/11/14 08:37:00;;;;;;;8.07;1.20;;;21.10;42.30;;;;;;5017945;28;20099;-66
2021/11/14 08:39:25;;;;;;;5.38;1.00;;;21.10;42.90;;;;;;5019028;28;20038;-66
2021/11/14 08:41:51;;;;;;;12.43;1.30;;;21.10;43.40;;;;;;5017715;28;20133;-65
2021/11/14 08:44:17;;;;;;;7.30;1.10;;;21.10;43.20;;;;;;5021445;28;20042;-66
2021/11/14 08:46:42;;;;;;;8.80;1.00;;;21.10;43.00;;;;;;5023048;28;20058;-65
2021/11/14 08:49:08;;;;;;;5.28;1.00;;;21.10;42.90;;;;;;5024097;28;20395;-66
2021/11/14 08:51:34;;;;;;;4.03;1.13;;;21.20;43.10;;;;;;5024451;28;20052;-65
2021/11/14 08:54:00;;;;;;;6.15;1.30;;;21.20;43.10;;;;;;5024304;28;20045;-66
2021/11/14 08:56:33;;;;;;;4.38;1.20;;;21.20;43.10;;;;;;5018951;28;20123;-65
2021/11/14 08:58:59;;;;;;;6.65;1.15;;;21.20;43.10;;;;;;5024836;28;20597;-66
2021/11/14 09:01:25;;;;;;;5.78;1.17;;;21.20;43.00;;;;;;5023445;28;20041;-66
2021/11/14 09:03:51;;;;;;;6.80;1.30;;;21.20;43.00;;;;;;5020462;28;20304;-65
2021/11/14 09:06:17;;;;;;;4.32;1.60;;;21.20;42.90;;;;;;5022693;28;20038;-66
2021/11/14 09:08:42;;;;;;;10.88;1.58;;;21.20;43.30;;;;;;5022811;28;20046;-65
2021/11/14 09:11:08;;;;;;;9.32;1.23;;;21.20;45.20;;;;;;5022079;28;20038;-65
2021/11/14 09:13:34;;;;;;;10.88;1.20;;;21.30;46.90;;;;;;5021627;28;20038;-65
2021/11/14 09:16:00;;;;;;;8.82;1.63;;;21.20;46.70;;;;;;5023515;28;20072;-65
2021/11/14 09:18:27;;;;;;;19.42;2.00;;;21.20;45.00;;;;;;5017462;28;20107;-65
2021/11/14 09:20:53;;;;;;;17.95;1.95;;;21.20;44.90;;;;;;5022897;28;20136;-65
2021/11/14 09:23:20;;;;;;;18.05;2.03;;;21.30;45.40;;;;;;5022002;28;20037;-65
2021/11/14 09:25:47;;;;;;;6.75;1.70;;;21.30;45.10;;;;;;5019776;28;20050;-65
2021/11/14 09:28:14;;;;;;;10.98;2.20;;;21.30;44.80;;;;;;5020975;28;20095;-65
2021/11/14 09:30:43;;;;;;;15.02;2.40;;;21.20;44.00;;;;;;5022735;28;20037;-64
2021/11/14 09:33:10;;;;;;;8.85;2.35;;;21.10;43.70;;;;;;5024328;28;20134;-65
2021/11/14 09:35:36;;;;;;;7.45;1.92;;;21.10;43.90;;;;;;5005124;28;20037;-66
2021/11/14 09:38:03;;;;;;;12.15;2.10;;;21.00;44.10;;;;;;5023919;28;20125;-66
2021/11/14 09:40:29;;;;;;;12.73;2.03;;;21.00;44.20;;;;;;5010361;28;20173;-66
2021/11/14 09:42:57;;;;;;;16.63;2.30;;;21.00;44.30;;;;;;5018509;28;20125;-66
2021/11/14 09:45:29;;;;;;;13.95;1.90;;;21.00;44.10;;;;;;5013070;28;20518;-66
2021/11/14 09:47:56;;;;;;;15.60;1.75;;;21.00;44.30;;;;;;5017554;28;20041;-65
2021/11/14 09:50:24;;;;;;;13.57;2.03;;;21.00;45.10;;;;;;5016332;28;20046;-65
2021/11/14 09:52:51;;;;;;;15.35;1.83;;;21.00;44.30;;;;;;5018788;28;20034;-66
2021/11/14 09:55:17;;;;;;;12.25;1.77;;;21.00;44.10;;;;;;5013738;28;20494;-66
2021/11/14 09:57:43;;;;;;;10.35;1.80;;;21.00;44.10;;;;;;5020263;28;20077;-65
2021/11/14 10:00:13;;;;;;;10.73;1.92;;;21.00;44.00;;;;;;5021713;28;20045;-65
2021/11/14 10:02:40;;;;;;;9.68;1.85;;;21.10;44.10;;;;;;5022936;28;20050;-65
2021/11/14 10:05:07;;;;;;;9.43;1.80;;;21.10;44.00;;;;;;5027209;28;20046;-65
2021/11/14 10:07:33;;;;;;;8.80;1.42;;;21.10;44.00;;;;;;5020258;28;20056;-65
2021/11/14 10:10:00;;;;;;;7.75;1.55;;;21.10;43.80;;;;;;5022009;28;20041;-65
2021/11/14 10:12:28;;;;;;;9.10;1.55;;;21.10;43.80;;;;;;5020128;28;20509;-65
2021/11/14 10:15:10;;;;;;;7.10;1.40;;;21.10;43.80;;;;;;5027256;28;20049;-65
2021/11/14 10:17:37;;;;;;;5.40;1.38;;;21.10;43.70;;;;;;5013684;28;20074;-65
2021/11/14 10:20:09;;;;;;;6.75;1.73;;;21.10;43.60;;;;;;5022800;28;20973;-65
2021/11/14 10:22:38;;;;;;;4.93;1.33;;;21.10;43.60;;;;;;5022200;28;20056;-64
2021/11/14 10:25:05;;;;;;;7.10;1.58;;;21.10;43.50;;;;;;5018787;28;20557;-65
2021/11/14 10:27:30;;;;;;;3.80;1.30;;;21.10;43.60;;;;;;5020876;28;20053;-66
2021/11/14 10:29:57;;;;;;;8.80;1.50;;;21.10;43.70;;;;;;5020759;28;20068;-66
2021/11/14 10:32:26;;;;;;;9.55;1.83;;;21.00;43.40;;;;;;5025079;28;20041;-66
2021/11/14 10:34:59;;;;;;;8.05;1.40;;;21.10;43.70;;;;;;5028914;28;20071;-66
2021/11/14 10:37:30;;;;;;;10.02;1.67;;;21.10;43.60;;;;;;5024873;28;20103;-66
2021/11/14 10:40:01;;;;;;;4.47;1.15;;;21.10;43.70;;;;;;5024179;28;20066;-65
2021/11/14 10:42:31;;;;;;;8.05;1.50;;;21.10;43.50;;;;;;5019556;28;20045;-66
2021/11/14 10:44:59;;;;;;;4.38;1.30;;;21.10;43.50;;;;;;5019369;28;20048;-66
2021/11/14 10:47:25;;;;;;;4.60;1.23;;;21.10;43.40;;;;;;5023939;28;20529;-67
2021/11/14 10:50:13;;;;;;;5.05;1.35;;;21.10;43.50;;;;;;5025132;28;20052;-65
2021/11/14 10:52:50;;;;;;;4.38;1.20;;;21.10;43.40;;;;;;5018557;28;20033;-65
2021/11/14 10:55:16;;;;;;;4.40;1.00;;;21.10;43.40;;;;;;5023882;28;20076;-66
2021/11/14 10:57:42;;;;;;;5.85;1.27;;;21.10;43.40;;;;;;5020957;28;20037;-65
2021/11/14 11:00:10;;;;;;;15.00;2.05;;;21.10;43.50;;;;;;5018088;28;20510;-65
2021/11/14 11:02:43;;;;;;;18.05;1.77;;;21.10;43.70;;;;;;5023561;28;20038;-65
2021/11/14 11:05:19;;;;;;;8.10;1.85;;;21.10;43.70;;;;;;5024862;28;20128;-64
2021/11/14 11:08:11;;;;;;;7.38;1.45;;;21.10;43.70;;;;;;5018965;28;20527;-66
2021/11/14 11:10:50;;;;;;;16.70;1.63;;;21.10;43.60;;;;;;5021067;28;20565;-66
2021/11/14 11:13:30;;;;;;;7.22;1.30;;;21.10;44.20;;;;;;5018093;28;20044;-65
2021/11/14 11:16:02;;;;;;;4.63;1.20;;;21.10;43.50;;;;;;5018900;28;20037;-65
2021/11/14 11:18:27;;;;;;;6.55;1.40;;;21.10;43.40;;;;;;5019468;28;20049;-65
2021/11/14 11:20:57;;;;;;;7.75;1.45;;;21.10;43.40;;;;;;5018971;28;20110;-65
2021/11/14 11:23:25;;;;;;;6.53;1.70;;;21.10;43.40;;;;;;5018235;28;20491;-65
2021/11/14 11:25:56;;;;;;;10.60;1.95;;;21.10;43.60;;;;;;5016526;28;20041;-65
2021/11/14 11:28:22;;;;;;;9.75;1.80;;;21.10;44.10;;;;;;5018402;28;20446;-65
2021/11/14 11:31:00;;;;;;;23.38;2.20;;;21.00;43.60;;;;;;5025694;28;20124;-64
2021/11/14 11:33:29;;;;;;;16.77;2.42;;;21.00;43.90;;;;;;5022471;28;20127;-63
2021/11/14 11:35:56;;;;;;;21.17;2.85;;;20.90;43.90;;;;;;5021744;28;20034;-65
2021/11/14 11:38:24;;;;;;;18.17;2.85;;;20.90;44.10;;;;;;5021934;28;20124;-65
2021/11/14 11:40:51;;;;;;;12.23;2.60;;;20.90;44.10;;;;;;5020072;28;20042;-64
2021/11/14 11:43:17;;;;;;;11.82;2.20;;;20.90;44.10;;;;;;5021146;28;20030;-64
2021/11/14 11:45:45;;;;;;;9.52;2.25;;;21.00;45.00;;;;;;5019211;28;20072;-64
2021/11/14 11:48:24;;;;;;;13.00;2.10;;;21.00;44.40;;;;;;5021726;28;20025;-65
2021/11/14 11:50:52;;;;;;;11.57;2.45;;;21.00;44.20;;;;;;5019443;28;20044;-62
2021/11/14 11:53:23;;;;;;;12.27;2.55;;;21.00;44.20;;;;;;5012197;28;20030;-65
2021/11/14 11:56:02;;;;;;;11.05;2.05;;;21.00;44.10;;;;;;5027297;28;20133;-64
2021/11/14 11:58:40;;;;;;;8.02;1.80;;;21.00;44.10;;;;;;5021103;28;20049;-66
2021/11/14 12:01:17;;;;;;;10.95;2.13;;;21.00;44.10;;;;;;5008439;28;20520;-64
2021/11/14 12:03:43;;;;;;;24.67;3.85;;;21.00;44.20;;;;;;5015769;28;20486;-65
2021/11/14 12:06:24;;;;;;;34.53;5.25;;;21.00;44.90;;;;;;5022707;28;20048;-64
2021/11/14 12:08:57;;;;;;;33.58;5.03;;;21.10;45.60;;;;;;5023325;28;20062;-64
2021/11/14 12:11:25;;;;;;;38.22;5.68;;;21.10;46.50;;;;;;5020068;28;20132;-64
2021/11/14 12:13:51;;;;;;;41.10;5.80;;;21.10;47.50;;;;;;5021053;28;20029;-64
2021/11/14 12:16:30;;;;;;;36.53;6.28;;;21.10;47.80;;;;;;5023795;28;20033;-64
2021/11/14 12:18:56;;;;;;;54.63;5.78;;;21.10;48.00;;;;;;5021629;28;20091;-63
2021/11/14 12:21:23;;;;;;;53.97;5.25;;;21.10;47.90;;;;;;5022852;28;20560;-62
2021/11/14 12:23:51;;;;;;;33.65;5.30;;;21.10;47.70;;;;;;5024313;28;20042;-64
2021/11/14 12:26:27;;;;;;;41.50;5.95;;;21.10;47.90;;;;;;5021340;28;20695;-62
2021/11/14 12:28:55;;;;;;;34.55;5.47;;;21.10;49.30;;;;;;5022716;28;20091;-63
2021/11/14 12:31:27;;;;;;;39.22;5.53;;;21.20;49.30;;;;;;5023570;28;20048;-64
2021/11/14 12:34:09;;;;;;;34.90;5.55;;;21.10;48.70;;;;;;5023312;28;20131;-63
2021/11/14 12:36:39;;;;;;;31.45;5.50;;;21.10;49.10;;;;;;5022944;28;20510;-64
2021/11/14 12:39:22;;;;;;;46.33;6.72;;;21.20;49.40;;;;;;5020681;28;20034;-64
2021/11/14 12:42:11;;;;;;;28.02;6.38;;;21.20;49.90;;;;;;5021448;28;20041;-63
2021/11/14 12:44:43;;;;;;;33.03;6.80;;;21.20;49.50;;;;;;5021339;28;20069;-64
2021/11/14 12:47:29;;;;;;;39.15;7.20;;;21.10;50.10;;;;;;5018518;28;20072;-64
2021/11/14 12:50:17;;;;;;;27.73;5.95;;;21.20;49.40;;;;;;5021377;28;20098;-65
2021/11/14 12:52:49;;;;;;;32.13;5.88;;;21.20;48.70;;;;;;5023296;28;20055;-65
2021/11/14 12:55:26;;;;;;;21.17;5.32;;;21.20;48.20;;;;;;5021510;28;20507;-65